Sabetha, Kansas
Current Conditions -  °F | °C
As of 9:25 AM on Wednesday 26 Nov 2014 (Local Time) from KFNB Reporting Station
Overcast Overcast  
Wind Chill: 30°   Ceiling: 2800
Heat Index: 39°   Visibility: 10mi
Dew Point: 32°   Wind: 17mph
Humidity: 76%   Direction: 300°WNW
Pressure: 29.98"   Gusts: 25mph
Location:  39.9°N, 95.8°W
Report Text: KFNB 261525Z AUTO 30015G22KT 10SM FEW020 BKN028 OVC042 04/00 A2998 RMK AO2 PK WND 31026/1458 RAE1457 P0000 T00390000
Loading
Personal Weather Stations






























Interactive Weather Map New forecast layout! Learn more

10-Day Weather Forecast

Advertisements
Track Severe Weather on mobile